sensor_id;sensor_type;location;lat;lon;timestamp;temperature;humidity
43185;DHT22;28803;52.308;19.096;2023-02-22T00:01:54;2.30;99.90
43185;DHT22;28803;52.308;19.096;2023-02-22T00:04:37;2.30;99.90
43185;DHT22;28803;52.308;19.096;2023-02-22T00:07:06;2.30;99.90
43185;DHT22;28803;52.308;19.096;2023-02-22T00:09:33;2.40;99.90
43185;DHT22;28803;52.308;19.096;2023-02-22T00:12:00;2.50;99.90
43185;DHT22;28803;52.308;19.096;2023-02-22T00:14:27;2.50;99.90
43185;DHT22;28803;52.308;19.096;2023-02-22T00:16:54;2.60;99.90
43185;DHT22;28803;52.308;19.096;2023-02-22T00:19:25;2.70;99.90
43185;DHT22;28803;52.308;19.096;2023-02-22T00:21:53;2.70;99.90
43185;DHT22;28803;52.308;19.096;2023-02-22T00:24:21;2.80;99.90
43185;DHT22;28803;52.308;19.096;2023-02-22T00:26:52;2.80;99.90
43185;DHT22;28803;52.308;19.096;2023-02-22T00:29:22;2.80;99.90
43185;DHT22;28803;52.308;19.096;2023-02-22T00:31:50;2.80;99.90
43185;DHT22;28803;52.308;19.096;2023-02-22T00:34:18;2.80;99.90
43185;DHT22;28803;52.308;19.096;2023-02-22T00:36:47;2.80;99.90
43185;DHT22;28803;52.308;19.096;2023-02-22T00:39:15;2.80;99.90
43185;DHT22;28803;52.308;19.096;2023-02-22T00:41:42;2.80;99.90
43185;DHT22;28803;52.308;19.096;2023-02-22T00:44:10;2.80;99.90
43185;DHT22;28803;52.308;19.096;2023-02-22T00:46:37;2.80;99.90
43185;DHT22;28803;52.308;19.096;2023-02-22T00:49:05;2.80;99.90
43185;DHT22;28803;52.308;19.096;2023-02-22T00:51:32;2.80;99.90
43185;DHT22;28803;52.308;19.096;2023-02-22T00:54:00;2.80;99.90
43185;DHT22;28803;52.308;19.096;2023-02-22T00:56:27;2.70;99.90
43185;DHT22;28803;52.308;19.096;2023-02-22T00:58:54;2.70;99.90
43185;DHT22;28803;52.308;19.096;2023-02-22T01:01:21;2.70;99.90
43185;DHT22;28803;52.308;19.096;2023-02-22T01:03:50;2.70;99.90
43185;DHT22;28803;52.308;19.096;2023-02-22T01:06:17;2.80;99.90
43185;DHT22;28803;52.308;19.096;2023-02-22T01:08:46;2.80;99.90
43185;DHT22;28803;52.308;19.096;2023-02-22T01:11:15;2.80;99.90
43185;DHT22;28803;52.308;19.096;2023-02-22T01:13:43;2.80;99.90
43185;DHT22;28803;52.308;19.096;2023-02-22T01:16:11;2.80;99.90
43185;DHT22;28803;52.308;19.096;2023-02-22T01:18:38;2.90;99.90
43185;DHT22;28803;52.308;19.096;2023-02-22T01:21:05;2.80;99.90
43185;DHT22;28803;52.308;19.096;2023-02-22T01:23:33;2.70;99.90
43185;DHT22;28803;52.308;19.096;2023-02-22T01:25:59;2.70;99.90
43185;DHT22;28803;52.308;19.096;2023-02-22T01:28:27;2.50;99.90
43185;DHT22;28803;52.308;19.096;2023-02-22T01:30:55;2.50;99.90
43185;DHT22;28803;52.308;19.096;2023-02-22T01:33:23;2.30;99.90
43185;DHT22;28803;52.308;19.096;2023-02-22T01:35:51;2.20;99.90
43185;DHT22;28803;52.308;19.096;2023-02-22T01:38:18;2.20;99.90
43185;DHT22;28803;52.308;19.096;2023-02-22T01:40:47;2.20;99.90
43185;DHT22;28803;52.308;19.096;2023-02-22T01:43:23;2.20;99.90
43185;DHT22;28803;52.308;19.096;2023-02-22T01:51:23;2.20;99.90
43185;DHT22;28803;52.308;19.096;2023-02-22T01:54:01;2.20;99.90
43185;DHT22;28803;52.308;19.096;2023-02-22T01:56:31;2.10;99.90
43185;DHT22;28803;52.308;19.096;2023-02-22T01:59:02;2.30;99.90
43185;DHT22;28803;52.308;19.096;2023-02-22T02:01:34;2.00;99.90
43185;DHT22;28803;52.308;19.096;2023-02-22T02:04:07;1.90;99.90
43185;DHT22;28803;52.308;19.096;2023-02-22T02:06:36;1.90;99.90
43185;DHT22;28803;52.308;19.096;2023-02-22T02:09:20;1.90;99.90
43185;DHT22;28803;52.308;19.096;2023-02-22T02:11:49;1.80;99.90
43185;DHT22;28803;52.308;19.096;2023-02-22T02:14:17;1.90;99.90
43185;DHT22;28803;52.308;19.096;2023-02-22T02:16:49;2.00;99.90
43185;DHT22;28803;52.308;19.096;2023-02-22T02:22:20;2.20;99.90
43185;DHT22;28803;52.308;19.096;2023-02-22T02:27:50;2.30;99.90
43185;DHT22;28803;52.308;19.096;2023-02-22T02:30:41;2.40;99.90
43185;DHT22;28803;52.308;19.096;2023-02-22T02:36:15;2.40;99.90
43185;DHT22;28803;52.308;19.096;2023-02-22T02:39:02;2.50;99.90
43185;DHT22;28803;52.308;19.096;2023-02-22T02:41:37;2.50;99.90
43185;DHT22;28803;52.308;19.096;2023-02-22T02:46:46;2.50;99.90
43185;DHT22;28803;52.308;19.096;2023-02-22T02:49:20;2.50;99.90
43185;DHT22;28803;52.308;19.096;2023-02-22T02:51:52;2.50;99.90
43185;DHT22;28803;52.308;19.096;2023-02-22T02:54:21;2.50;99.90
43185;DHT22;28803;52.308;19.096;2023-02-22T02:56:50;2.60;99.90
43185;DHT22;28803;52.308;19.096;2023-02-22T02:59:25;2.60;99.90
43185;DHT22;28803;52.308;19.096;2023-02-22T03:01:56;2.60;99.90
43185;DHT22;28803;52.308;19.096;2023-02-22T03:07:43;2.60;99.90
43185;DHT22;28803;52.308;19.096;2023-02-22T03:13:23;2.50;99.90
43185;DHT22;28803;52.308;19.096;2023-02-22T03:26:41;2.30;99.90
43185;DHT22;28803;52.308;19.096;2023-02-22T03:29:12;2.30;99.90
43185;DHT22;28803;52.308;19.096;2023-02-22T03:31:46;2.10;99.90
43185;DHT22;28803;52.308;19.096;2023-02-22T03:34:18;2.00;99.90
43185;DHT22;28803;52.308;19.096;2023-02-22T03:36:58;1.80;99.90
43185;DHT22;28803;52.308;19.096;2023-02-22T03:39:28;1.70;99.90
43185;DHT22;28803;52.308;19.096;2023-02-22T03:42:02;1.60;99.90
43185;DHT22;28803;52.308;19.096;2023-02-22T03:44:32;1.50;99.90
43185;DHT22;28803;52.308;19.096;2023-02-22T03:47:08;1.40;99.90
43185;DHT22;28803;52.308;19.096;2023-02-22T03:50:31;1.40;99.90
43185;DHT22;28803;52.308;19.096;2023-02-22T03:52:41;1.40;99.90
43185;DHT22;28803;52.308;19.096;2023-02-22T03:55:10;1.20;99.90
43185;DHT22;28803;52.308;19.096;2023-02-22T03:57:40;1.20;99.90
43185;DHT22;28803;52.308;19.096;2023-02-22T04:00:15;1.20;99.90
43185;DHT22;28803;52.308;19.096;2023-02-22T04:02:44;1.20;99.90
43185;DHT22;28803;52.308;19.096;2023-02-22T04:05:11;1.20;99.90
43185;DHT22;28803;52.308;19.096;2023-02-22T04:07:40;1.20;99.90
43185;DHT22;28803;52.308;19.096;2023-02-22T04:10:09;1.20;99.90
43185;DHT22;28803;52.308;19.096;2023-02-22T04:12:36;1.10;99.90
43185;DHT22;28803;52.308;19.096;2023-02-22T04:15:05;1.00;99.90
43185;DHT22;28803;52.308;19.096;2023-02-22T04:17:33;0.80;99.90
43185;DHT22;28803;52.308;19.096;2023-02-22T04:20:00;0.70;99.90
43185;DHT22;28803;52.308;19.096;2023-02-22T04:22:27;0.60;99.90
43185;DHT22;28803;52.308;19.096;2023-02-22T04:24:55;0.60;99.90
43185;DHT22;28803;52.308;19.096;2023-02-22T04:27:22;0.70;99.90
43185;DHT22;28803;52.308;19.096;2023-02-22T04:29:50;0.70;99.90
43185;DHT22;28803;52.308;19.096;2023-02-22T04:32:17;0.60;99.90
43185;DHT22;28803;52.308;19.096;2023-02-22T04:34:45;0.60;99.90
43185;DHT22;28803;52.308;19.096;2023-02-22T04:37:12;0.50;99.90
43185;DHT22;28803;52.308;19.096;2023-02-22T04:39:39;0.50;99.90
43185;DHT22;28803;52.308;19.096;2023-02-22T04:42:06;0.50;99.90
43185;DHT22;28803;52.308;19.096;2023-02-22T04:44:33;0.40;99.90
43185;DHT22;28803;52.308;19.096;2023-02-22T04:47:00;0.30;99.90
43185;DHT22;28803;52.308;19.096;2023-02-22T04:49:28;0.30;99.90
43185;DHT22;28803;52.308;19.096;2023-02-22T04:51:55;0.20;99.90
43185;DHT22;28803;52.308;19.096;2023-02-22T04:54:22;0.10;99.90
43185;DHT22;28803;52.308;19.096;2023-02-22T04:56:49;0.00;99.90
43185;DHT22;28803;52.308;19.096;2023-02-22T04:59:16;0.00;99.90
43185;DHT22;28803;52.308;19.096;2023-02-22T05:01:45;0.00;99.90
43185;DHT22;28803;52.308;19.096;2023-02-22T05:04:13;0.10;99.90
43185;DHT22;28803;52.308;19.096;2023-02-22T05:06:40;0.20;99.90
43185;DHT22;28803;52.308;19.096;2023-02-22T05:09:07;0.20;99.90
43185;DHT22;28803;52.308;19.096;2023-02-22T05:11:34;0.10;99.90
43185;DHT22;28803;52.308;19.096;2023-02-22T05:14:01;0.00;99.90
43185;DHT22;28803;52.308;19.096;2023-02-22T05:16:28;0.00;99.90
43185;DHT22;28803;52.308;19.096;2023-02-22T05:18:56;0.00;99.90
43185;DHT22;28803;52.308;19.096;2023-02-22T05:21:23;-0.10;99.90
43185;DHT22;28803;52.308;19.096;2023-02-22T05:23:50;-0.10;99.90
43185;DHT22;28803;52.308;19.096;2023-02-22T05:26:17;-0.20;99.90
43185;DHT22;28803;52.308;19.096;2023-02-22T05:28:45;-0.20;99.90
43185;DHT22;28803;52.308;19.096;2023-02-22T05:31:12;-0.20;99.90
43185;DHT22;28803;52.308;19.096;2023-02-22T05:33:40;-0.30;99.90
43185;DHT22;28803;52.308;19.096;2023-02-22T05:36:07;-0.30;99.90
43185;DHT22;28803;52.308;19.096;2023-02-22T05:38:35;-0.40;99.90
43185;DHT22;28803;52.308;19.096;2023-02-22T05:41:10;-0.40;99.90
43185;DHT22;28803;52.308;19.096;2023-02-22T05:43:38;-0.50;99.90
43185;DHT22;28803;52.308;19.096;2023-02-22T05:46:06;-0.50;99.90
43185;DHT22;28803;52.308;19.096;2023-02-22T05:48:33;-0.50;99.90
43185;DHT22;28803;52.308;19.096;2023-02-22T05:51:01;-0.50;99.90
43185;DHT22;28803;52.308;19.096;2023-02-22T05:53:29;-0.50;99.90
43185;DHT22;28803;52.308;19.096;2023-02-22T05:55:56;-0.50;99.90
43185;DHT22;28803;52.308;19.096;2023-02-22T05:58:24;-0.50;99.90
43185;DHT22;28803;52.308;19.096;2023-02-22T06:00:51;-0.50;99.90
43185;DHT22;28803;52.308;19.096;2023-02-22T06:03:18;-0.50;99.90
43185;DHT22;28803;52.308;19.096;2023-02-22T06:05:45;-0.60;99.90
43185;DHT22;28803;52.308;19.096;2023-02-22T06:08:13;-0.60;99.90
43185;DHT22;28803;52.308;19.096;2023-02-22T06:10:40;-0.60;99.90
43185;DHT22;28803;52.308;19.096;2023-02-22T06:13:07;-0.60;99.90
43185;DHT22;28803;52.308;19.096;2023-02-22T06:15:34;-0.60;99.90
43185;DHT22;28803;52.308;19.096;2023-02-22T06:18:02;-0.50;99.90
43185;DHT22;28803;52.308;19.096;2023-02-22T06:20:29;-0.50;99.90
43185;DHT22;28803;52.308;19.096;2023-02-22T06:22:57;-0.40;99.90
43185;DHT22;28803;52.308;19.096;2023-02-22T06:25:27;-0.30;99.90
43185;DHT22;28803;52.308;19.096;2023-02-22T06:27:58;-0.10;99.90
43185;DHT22;28803;52.308;19.096;2023-02-22T06:30:26;0.10;99.90
43185;DHT22;28803;52.308;19.096;2023-02-22T06:32:54;0.20;99.90
43185;DHT22;28803;52.308;19.096;2023-02-22T06:35:21;0.60;99.90
43185;DHT22;28803;52.308;19.096;2023-02-22T06:37:48;1.30;99.90
43185;DHT22;28803;52.308;19.096;2023-02-22T06:40:16;1.80;99.90
43185;DHT22;28803;52.308;19.096;2023-02-22T06:42:43;2.60;99.90
43185;DHT22;28803;52.308;19.096;2023-02-22T06:45:13;2.60;99.90
43185;DHT22;28803;52.308;19.096;2023-02-22T06:47:41;2.50;99.90
43185;DHT22;28803;52.308;19.096;2023-02-22T06:50:28;2.30;99.90
43185;DHT22;28803;52.308;19.096;2023-02-22T06:52:57;2.10;99.90
43185;DHT22;28803;52.308;19.096;2023-02-22T06:55:27;2.10;99.90
43185;DHT22;28803;52.308;19.096;2023-02-22T06:57:54;2.00;99.90
43185;DHT22;28803;52.308;19.096;2023-02-22T07:00:23;2.00;99.90
43185;DHT22;28803;52.308;19.096;2023-02-22T07:02:52;2.00;99.90
43185;DHT22;28803;52.308;19.096;2023-02-22T07:05:22;2.00;99.90
43185;DHT22;28803;52.308;19.096;2023-02-22T07:07:51;2.10;99.90
43185;DHT22;28803;52.308;19.096;2023-02-22T07:10:23;2.00;99.90
43185;DHT22;28803;52.308;19.096;2023-02-22T07:12:51;2.10;99.90
43185;DHT22;28803;52.308;19.096;2023-02-22T07:15:23;2.10;99.90
43185;DHT22;28803;52.308;19.096;2023-02-22T07:17:51;2.10;99.90
43185;DHT22;28803;52.308;19.096;2023-02-22T07:20:19;2.20;99.90
43185;DHT22;28803;52.308;19.096;2023-02-22T07:22:48;2.20;99.90
43185;DHT22;28803;52.308;19.096;2023-02-22T07:25:15;2.20;99.90
43185;DHT22;28803;52.308;19.096;2023-02-22T07:27:42;2.20;99.90
43185;DHT22;28803;52.308;19.096;2023-02-22T07:30:24;2.30;99.90
43185;DHT22;28803;52.308;19.096;2023-02-22T07:32:53;2.40;99.90
43185;DHT22;28803;52.308;19.096;2023-02-22T07:35:32;2.50;99.90
43185;DHT22;28803;52.308;19.096;2023-02-22T07:37:59;2.40;99.90
43185;DHT22;28803;52.308;19.096;2023-02-22T07:40:27;2.50;99.90
43185;DHT22;28803;52.308;19.096;2023-02-22T07:45:34;2.60;99.90
43185;DHT22;28803;52.308;19.096;2023-02-22T07:48:04;2.70;99.90
43185;DHT22;28803;52.308;19.096;2023-02-22T07:50:32;2.80;99.90
43185;DHT22;28803;52.308;19.096;2023-02-22T07:53:06;2.70;99.90
43185;DHT22;28803;52.308;19.096;2023-02-22T07:55:33;2.80;99.90
43185;DHT22;28803;52.308;19.096;2023-02-22T07:58:03;2.70;99.90
43185;DHT22;28803;52.308;19.096;2023-02-22T08:00:38;2.70;99.90
43185;DHT22;28803;52.308;19.096;2023-02-22T08:03:08;2.80;99.90
43185;DHT22;28803;52.308;19.096;2023-02-22T08:05:37;2.90;99.90
43185;DHT22;28803;52.308;19.096;2023-02-22T08:08:06;2.80;99.90
43185;DHT22;28803;52.308;19.096;2023-02-22T08:10:34;2.90;99.90
43185;DHT22;28803;52.308;19.096;2023-02-22T08:13:03;3.00;99.90
43185;DHT22;28803;52.308;19.096;2023-02-22T08:15:36;2.90;99.90
43185;DHT22;28803;52.308;19.096;2023-02-22T08:18:08;2.90;99.90
43185;DHT22;28803;52.308;19.096;2023-02-22T08:20:37;2.90;99.90
43185;DHT22;28803;52.308;19.096;2023-02-22T08:23:05;2.90;99.90
43185;DHT22;28803;52.308;19.096;2023-02-22T08:25:33;2.90;99.90
43185;DHT22;28803;52.308;19.096;2023-02-22T08:28:07;2.90;99.90
43185;DHT22;28803;52.308;19.096;2023-02-22T08:30:34;2.90;99.90
43185;DHT22;28803;52.308;19.096;2023-02-22T08:33:06;3.10;99.90
43185;DHT22;28803;52.308;19.096;2023-02-22T08:35:33;3.10;99.90
43185;DHT22;28803;52.308;19.096;2023-02-22T08:38:03;3.20;99.90
43185;DHT22;28803;52.308;19.096;2023-02-22T08:40:33;3.20;99.90
43185;DHT22;28803;52.308;19.096;2023-02-22T08:43:01;3.30;99.90
43185;DHT22;28803;52.308;19.096;2023-02-22T08:45:29;3.40;99.90
43185;DHT22;28803;52.308;19.096;2023-02-22T08:47:57;3.70;99.90
43185;DHT22;28803;52.308;19.096;2023-02-22T08:50:29;3.80;99.90
43185;DHT22;28803;52.308;19.096;2023-02-22T08:52:58;3.80;99.90
43185;DHT22;28803;52.308;19.096;2023-02-22T08:55:29;3.80;99.90
43185;DHT22;28803;52.308;19.096;2023-02-22T08:57:59;4.00;99.90
43185;DHT22;28803;52.308;19.096;2023-02-22T09:00:30;4.10;99.90
43185;DHT22;28803;52.308;19.096;2023-02-22T09:03:04;4.30;99.90
43185;DHT22;28803;52.308;19.096;2023-02-22T09:05:31;4.40;99.90
43185;DHT22;28803;52.308;19.096;2023-02-22T09:07:59;4.40;99.90
43185;DHT22;28803;52.308;19.096;2023-02-22T09:10:31;4.30;99.90
43185;DHT22;28803;52.308;19.096;2023-02-22T09:12:59;4.40;99.90
43185;DHT22;28803;52.308;19.096;2023-02-22T09:15:27;4.60;99.90
43185;DHT22;28803;52.308;19.096;2023-02-22T09:17:55;4.80;99.90
43185;DHT22;28803;52.308;19.096;2023-02-22T09:20:23;4.70;99.90
43185;DHT22;28803;52.308;19.096;2023-02-22T09:22:52;4.70;99.90
43185;DHT22;28803;52.308;19.096;2023-02-22T09:25:19;4.60;99.90
43185;DHT22;28803;52.308;19.096;2023-02-22T09:27:49;4.70;99.90
43185;DHT22;28803;52.308;19.096;2023-02-22T09:30:29;5.00;99.90
43185;DHT22;28803;52.308;19.096;2023-02-22T09:33:01;5.00;99.90
43185;DHT22;28803;52.308;19.096;2023-02-22T09:35:29;4.90;99.90
43185;DHT22;28803;52.308;19.096;2023-02-22T09:37:58;4.80;99.90
43185;DHT22;28803;52.308;19.096;2023-02-22T09:40:28;4.90;99.90
43185;DHT22;28803;52.308;19.096;2023-02-22T09:48:32;4.90;99.90
43185;DHT22;28803;52.308;19.096;2023-02-22T09:51:08;4.90;99.90
43185;DHT22;28803;52.308;19.096;2023-02-22T09:53:41;5.10;99.90
43185;DHT22;28803;52.308;19.096;2023-02-22T09:56:16;5.30;99.90
43185;DHT22;28803;52.308;19.096;2023-02-22T09:58:50;5.60;99.90
43185;DHT22;28803;52.308;19.096;2023-02-22T10:01:53;5.40;99.90
43185;DHT22;28803;52.308;19.096;2023-02-22T10:04:41;5.30;99.90
43185;DHT22;28803;52.308;19.096;2023-02-22T10:07:25;5.30;99.90
43185;DHT22;28803;52.308;19.096;2023-02-22T10:09:56;5.30;99.90
43185;DHT22;28803;52.308;19.096;2023-02-22T10:15:29;5.90;99.90
43185;DHT22;28803;52.308;19.096;2023-02-22T10:18:31;5.90;99.90
43185;DHT22;28803;52.308;19.096;2023-02-22T10:26:41;6.20;99.90
43185;DHT22;28803;52.308;19.096;2023-02-22T10:31:59;5.90;99.90
43185;DHT22;28803;52.308;19.096;2023-02-22T10:34:43;5.70;99.90
43185;DHT22;28803;52.308;19.096;2023-02-22T10:39:47;5.20;99.90
43185;DHT22;28803;52.308;19.096;2023-02-22T10:42:16;5.10;99.90
43185;DHT22;28803;52.308;19.096;2023-02-22T10:44:43;5.10;99.90
43185;DHT22;28803;52.308;19.096;2023-02-22T10:47:12;5.00;99.90
43185;DHT22;28803;52.308;19.096;2023-02-22T10:49:54;4.90;99.90
43185;DHT22;28803;52.308;19.096;2023-02-22T10:52:29;4.90;99.90
43185;DHT22;28803;52.308;19.096;2023-02-22T10:54:57;5.10;99.90
43185;DHT22;28803;52.308;19.096;2023-02-22T10:57:44;5.10;99.90
43185;DHT22;28803;52.308;19.096;2023-02-22T11:02:55;4.90;99.90
43185;DHT22;28803;52.308;19.096;2023-02-22T11:05:35;5.00;99.90
43185;DHT22;28803;52.308;19.096;2023-02-22T11:10:54;4.90;99.90
43185;DHT22;28803;52.308;19.096;2023-02-22T11:13:26;4.90;99.90
43185;DHT22;28803;52.308;19.096;2023-02-22T11:15:58;5.00;99.90
43185;DHT22;28803;52.308;19.096;2023-02-22T11:18:30;5.20;99.90
43185;DHT22;28803;52.308;19.096;2023-02-22T11:23:31;5.10;99.90
43185;DHT22;28803;52.308;19.096;2023-02-22T11:26:05;5.20;99.90
43185;DHT22;28803;52.308;19.096;2023-02-22T11:28:34;5.00;99.90
43185;DHT22;28803;52.308;19.096;2023-02-22T11:31:20;4.90;99.90
43185;DHT22;28803;52.308;19.096;2023-02-22T11:36:36;4.70;99.90
43185;DHT22;28803;52.308;19.096;2023-02-22T11:39:26;4.80;99.90
43185;DHT22;28803;52.308;19.096;2023-02-22T11:41:55;4.70;99.90
43185;DHT22;28803;52.308;19.096;2023-02-22T11:46:55;5.00;99.90
43185;DHT22;28803;52.308;19.096;2023-02-22T11:49:30;5.20;99.90
43185;DHT22;28803;52.308;19.096;2023-02-22T11:52:19;5.20;99.90
43185;DHT22;28803;52.308;19.096;2023-02-22T11:58:12;5.10;99.90
43185;DHT22;28803;52.308;19.096;2023-02-22T12:00:55;5.10;99.90
43185;DHT22;28803;52.308;19.096;2023-02-22T12:03:45;5.10;99.90
43185;DHT22;28803;52.308;19.096;2023-02-22T12:06:29;5.20;99.90
43185;DHT22;28803;52.308;19.096;2023-02-22T12:09:12;5.10;99.90
43185;DHT22;28803;52.308;19.096;2023-02-22T12:15:31;5.40;99.90
43185;DHT22;28803;52.308;19.096;2023-02-22T12:18:54;5.40;99.90
43185;DHT22;28803;52.308;19.096;2023-02-22T12:21:17;5.30;99.90
43185;DHT22;28803;52.308;19.096;2023-02-22T12:23:57;5.30;99.90
43185;DHT22;28803;52.308;19.096;2023-02-22T12:26:41;5.30;99.90
43185;DHT22;28803;52.308;19.096;2023-02-22T12:31:54;5.50;99.90
43185;DHT22;28803;52.308;19.096;2023-02-22T12:34:28;5.60;99.90
43185;DHT22;28803;52.308;19.096;2023-02-22T12:37:20;5.70;99.90
43185;DHT22;28803;52.308;19.096;2023-02-22T12:42:55;5.70;99.90
43185;DHT22;28803;52.308;19.096;2023-02-22T12:45:38;5.60;99.90
43185;DHT22;28803;52.308;19.096;2023-02-22T12:50:35;5.90;99.80
43185;DHT22;28803;52.308;19.096;2023-02-22T12:56:20;6.00;98.30
43185;DHT22;28803;52.308;19.096;2023-02-22T12:58:55;6.00;98.20
43185;DHT22;28803;52.308;19.096;2023-02-22T13:01:39;6.20;98.80
43185;DHT22;28803;52.308;19.096;2023-02-22T13:04:09;6.30;97.60
43185;DHT22;28803;52.308;19.096;2023-02-22T13:09:57;6.40;97.10
43185;DHT22;28803;52.308;19.096;2023-02-22T13:15:25;5.90;97.10
43185;DHT22;28803;52.308;19.096;2023-02-22T13:18:36;5.50;96.80
43185;DHT22;28803;52.308;19.096;2023-02-22T13:21:27;5.00;97.10
43185;DHT22;28803;52.308;19.096;2023-02-22T13:24:05;4.80;98.90
43185;DHT22;28803;52.308;19.096;2023-02-22T13:26:52;4.70;99.20
43185;DHT22;28803;52.308;19.096;2023-02-22T13:29:35;4.80;99.80
43185;DHT22;28803;52.308;19.096;2023-02-22T13:49:25;4.30;99.90
43185;DHT22;28803;52.308;19.096;2023-02-22T13:52:05;4.10;99.90
43185;DHT22;28803;52.308;19.096;2023-02-22T13:54:38;3.90;99.90
43185;DHT22;28803;52.308;19.096;2023-02-22T13:59:45;3.60;99.90
43185;DHT22;28803;52.308;19.096;2023-02-22T14:13:16;3.60;99.90
43185;DHT22;28803;52.308;19.096;2023-02-22T14:18:31;3.50;99.90
43185;DHT22;28803;52.308;19.096;2023-02-22T14:21:20;3.40;99.90
43185;DHT22;28803;52.308;19.096;2023-02-22T14:23:50;3.20;99.90
43185;DHT22;28803;52.308;19.096;2023-02-22T14:31:21;2.90;99.90
43185;DHT22;28803;52.308;19.096;2023-02-22T14:34:09;2.90;99.90
43185;DHT22;28803;52.308;19.096;2023-02-22T14:42:09;2.60;99.90
43185;DHT22;28803;52.308;19.096;2023-02-22T14:47:30;2.50;99.90
43185;DHT22;28803;52.308;19.096;2023-02-22T14:50:07;2.50;99.90
43185;DHT22;28803;52.308;19.096;2023-02-22T14:52:39;2.50;99.90
43185;DHT22;28803;52.308;19.096;2023-02-22T14:55:20;2.50;99.90
43185;DHT22;28803;52.308;19.096;2023-02-22T15:03:04;2.40;99.90
43185;DHT22;28803;52.308;19.096;2023-02-22T15:05:36;2.30;99.90
43185;DHT22;28803;52.308;19.096;2023-02-22T15:08:06;2.20;99.90
43185;DHT22;28803;52.308;19.096;2023-02-22T15:10:50;2.10;99.90
43185;DHT22;28803;52.308;19.096;2023-02-22T15:13:22;2.00;99.90
43185;DHT22;28803;52.308;19.096;2023-02-22T15:15:54;1.90;99.90
43185;DHT22;28803;52.308;19.096;2023-02-22T15:18:29;1.90;99.90
43185;DHT22;28803;52.308;19.096;2023-02-22T15:21:05;1.80;99.90
43185;DHT22;28803;52.308;19.096;2023-02-22T15:23:42;1.70;99.90
43185;DHT22;28803;52.308;19.096;2023-02-22T15:29:06;1.70;99.90
43185;DHT22;28803;52.308;19.096;2023-02-22T15:31:35;1.70;99.90
43185;DHT22;28803;52.308;19.096;2023-02-22T15:34:20;1.70;99.90
43185;DHT22;28803;52.308;19.096;2023-02-22T15:36:52;1.70;99.90
43185;DHT22;28803;52.308;19.096;2023-02-22T15:39:27;1.70;99.90
43185;DHT22;28803;52.308;19.096;2023-02-22T15:44:41;1.70;99.90
43185;DHT22;28803;52.308;19.096;2023-02-22T15:47:18;1.70;99.90
43185;DHT22;28803;52.308;19.096;2023-02-22T15:50:12;1.60;99.90
43185;DHT22;28803;52.308;19.096;2023-02-22T15:52:58;1.50;99.90
43185;DHT22;28803;52.308;19.096;2023-02-22T15:57:59;1.40;99.90
43185;DHT22;28803;52.308;19.096;2023-02-22T16:00:32;1.40;99.90
43185;DHT22;28803;52.308;19.096;2023-02-22T16:03:14;1.30;99.90
43185;DHT22;28803;52.308;19.096;2023-02-22T16:08:18;1.30;99.90
43185;DHT22;28803;52.308;19.096;2023-02-22T16:11:04;1.30;99.90
43185;DHT22;28803;52.308;19.096;2023-02-22T16:13:33;1.30;99.90
43185;DHT22;28803;52.308;19.096;2023-02-22T16:16:03;1.40;99.90
43185;DHT22;28803;52.308;19.096;2023-02-22T16:18:36;1.30;99.90
43185;DHT22;28803;52.308;19.096;2023-02-22T16:26:21;1.30;99.90
43185;DHT22;28803;52.308;19.096;2023-02-22T16:28:51;1.20;99.90
43185;DHT22;28803;52.308;19.096;2023-02-22T16:31:24;1.30;99.90
43185;DHT22;28803;52.308;19.096;2023-02-22T16:33:52;1.30;99.90
43185;DHT22;28803;52.308;19.096;2023-02-22T16:36:23;1.30;99.90
43185;DHT22;28803;52.308;19.096;2023-02-22T16:39:03;1.30;99.90
43185;DHT22;28803;52.308;19.096;2023-02-22T16:41:33;1.20;99.90
43185;DHT22;28803;52.308;19.096;2023-02-22T16:44:00;1.30;99.90
43185;DHT22;28803;52.308;19.096;2023-02-22T16:46:29;1.20;99.90
43185;DHT22;28803;52.308;19.096;2023-02-22T16:48:56;1.20;99.90
43185;DHT22;28803;52.308;19.096;2023-02-22T16:51:34;1.20;99.90
43185;DHT22;28803;52.308;19.096;2023-02-22T16:54:10;1.20;99.90
43185;DHT22;28803;52.308;19.096;2023-02-22T16:56:38;1.20;99.90
43185;DHT22;28803;52.308;19.096;2023-02-22T16:59:10;1.20;99.90
43185;DHT22;28803;52.308;19.096;2023-02-22T17:01:37;1.20;99.90
43185;DHT22;28803;52.308;19.096;2023-02-22T17:04:13;1.20;99.90
43185;DHT22;28803;52.308;19.096;2023-02-22T17:06:40;1.10;99.90
43185;DHT22;28803;52.308;19.096;2023-02-22T17:09:08;1.10;99.90
43185;DHT22;28803;52.308;19.096;2023-02-22T17:11:35;1.10;99.90
43185;DHT22;28803;52.308;19.096;2023-02-22T17:14:04;1.10;99.90
43185;DHT22;28803;52.308;19.096;2023-02-22T17:16:31;1.00;99.90
43185;DHT22;28803;52.308;19.096;2023-02-22T17:18:58;1.00;99.90
43185;DHT22;28803;52.308;19.096;2023-02-22T17:21:26;1.00;99.90
43185;DHT22;28803;52.308;19.096;2023-02-22T17:23:53;1.00;99.90
43185;DHT22;28803;52.308;19.096;2023-02-22T17:26:20;0.90;99.90
43185;DHT22;28803;52.308;19.096;2023-02-22T17:28:47;0.90;99.90
43185;DHT22;28803;52.308;19.096;2023-02-22T17:31:21;0.90;99.90
43185;DHT22;28803;52.308;19.096;2023-02-22T17:33:48;0.90;99.90
43185;DHT22;28803;52.308;19.096;2023-02-22T17:36:17;0.90;99.90
43185;DHT22;28803;52.308;19.096;2023-02-22T17:38:45;0.80;99.90
43185;DHT22;28803;52.308;19.096;2023-02-22T17:41:12;0.80;99.90
43185;DHT22;28803;52.308;19.096;2023-02-22T17:43:39;0.80;99.90
43185;DHT22;28803;52.308;19.096;2023-02-22T17:46:07;0.80;99.90
43185;DHT22;28803;52.308;19.096;2023-02-22T17:48:34;0.80;99.90
43185;DHT22;28803;52.308;19.096;2023-02-22T17:51:09;0.80;99.90
43185;DHT22;28803;52.308;19.096;2023-02-22T17:53:37;0.80;99.90
43185;DHT22;28803;52.308;19.096;2023-02-22T17:56:09;0.70;99.90
43185;DHT22;28803;52.308;19.096;2023-02-22T17:58:40;0.70;99.90
43185;DHT22;28803;52.308;19.096;2023-02-22T18:01:18;0.60;99.90
43185;DHT22;28803;52.308;19.096;2023-02-22T18:03:47;0.60;99.90
43185;DHT22;28803;52.308;19.096;2023-02-22T18:06:16;0.60;99.90
43185;DHT22;28803;52.308;19.096;2023-02-22T18:08:50;0.50;99.90
43185;DHT22;28803;52.308;19.096;2023-02-22T18:11:23;0.50;99.90
43185;DHT22;28803;52.308;19.096;2023-02-22T18:13:55;0.50;99.90
43185;DHT22;28803;52.308;19.096;2023-02-22T18:16:23;0.50;99.90
43185;DHT22;28803;52.308;19.096;2023-02-22T18:18:55;0.50;99.90
43185;DHT22;28803;52.308;19.096;2023-02-22T18:21:23;0.50;99.90
43185;DHT22;28803;52.308;19.096;2023-02-22T18:23:53;0.50;99.90
43185;DHT22;28803;52.308;19.096;2023-02-22T18:26:22;0.50;99.90
43185;DHT22;28803;52.308;19.096;2023-02-22T18:28:50;0.50;99.90
43185;DHT22;28803;52.308;19.096;2023-02-22T18:31:20;0.50;99.90
43185;DHT22;28803;52.308;19.096;2023-02-22T18:33:50;0.40;99.90
43185;DHT22;28803;52.308;19.096;2023-02-22T18:36:18;0.40;99.90
43185;DHT22;28803;52.308;19.096;2023-02-22T18:38:51;0.40;99.90
43185;DHT22;28803;52.308;19.096;2023-02-22T18:41:20;0.40;99.90